Time;durP1;ratioP1;P1;durP2;ratioP2;P2;SDS_P1;SDS_P2;PMS_P1;PMS_P2;Temp;Humidity;BMP_temperature;BMP_pressure;BME280_temperature;BME280_humidity;BME280_pressure;Samples;Min_cycle;Max_cycle;Signal;HPM_P1;HPM_P2
2021/07/21 00:01:31;;;;;;;15.25;13.85;;;28.10;65.60;;;;;;1849756;76;21041;-51
2021/07/21 00:04:00;;;;;;;21.97;14.87;;;28.10;65.40;;;;;;1849707;77;21045;-52
2021/07/21 00:06:30;;;;;;;15.13;13.58;;;28.00;65.60;;;;;;1849744;77;21029;-51
2021/07/21 00:08:59;;;;;;;14.40;13.00;;;27.80;66.20;;;;;;1849786;77;21025;-50
2021/07/21 00:14:20;;;;;;;18.32;14.38;;;27.90;66.50;;;;;;1849730;77;21049;-52
2021/07/21 00:17:04;;;;;;;16.05;14.07;;;27.80;66.20;;;;;;1850128;77;21132;-51
2021/07/21 00:22:12;;;;;;;15.93;14.25;;;27.60;66.80;;;;;;1864998;76;21124;-51
2021/07/21 00:24:42;;;;;;;15.28;13.72;;;27.60;67.10;;;;;;1865880;77;21056;-51
2021/07/21 00:27:13;;;;;;;15.80;14.18;;;27.70;67.20;;;;;;1865858;77;21095;-52
2021/07/21 00:29:42;;;;;;;15.58;14.05;;;27.70;67.10;;;;;;1865855;77;21507;-52
2021/07/21 00:32:11;;;;;;;16.52;14.83;;;27.60;67.40;;;;;;1866012;77;21040;-52
2021/07/21 00:34:41;;;;;;;17.67;13.90;;;27.60;67.70;;;;;;1865976;77;21106;-51
2021/07/21 00:37:11;;;;;;;15.28;13.90;;;27.60;67.80;;;;;;1865952;77;21110;-51
2021/07/21 00:39:40;;;;;;;16.35;14.73;;;27.60;68.00;;;;;;1865981;77;21103;-52
2021/07/21 00:42:09;;;;;;;17.82;15.98;;;27.50;68.00;;;;;;1865883;77;21040;-51
2021/07/21 00:44:40;;;;;;;17.52;15.53;;;27.50;68.10;;;;;;1865943;77;21135;-51
2021/07/21 00:47:09;;;;;;;16.37;14.85;;;27.40;68.40;;;;;;1865869;77;21037;-50
2021/07/21 00:49:41;;;;;;;15.28;13.80;;;27.40;68.80;;;;;;1865837;77;21021;-52
2021/07/21 00:52:10;;;;;;;16.90;15.23;;;27.40;69.10;;;;;;1865884;77;21044;-51
2021/07/21 00:54:40;;;;;;;16.90;15.30;;;27.40;69.10;;;;;;1865953;77;21037;-50
2021/07/21 00:57:10;;;;;;;17.12;15.25;;;27.50;69.10;;;;;;1866053;77;21163;-51
2021/07/21 00:59:39;;;;;;;15.98;14.38;;;27.50;69.00;;;;;;1865810;77;21049;-51
2021/07/21 01:02:09;;;;;;;16.85;15.15;;;27.60;69.00;;;;;;1865915;77;21107;-51
2021/07/21 01:04:40;;;;;;;17.37;14.87;;;27.60;69.00;;;;;;1865858;77;21045;-50
2021/07/21 01:07:09;;;;;;;17.57;15.75;;;27.70;69.00;;;;;;1865842;77;21162;-51
2021/07/21 01:09:43;;;;;;;17.23;15.10;;;27.70;68.90;;;;;;1865833;77;21149;-51
2021/07/21 01:12:27;;;;;;;18.95;15.08;;;27.80;68.90;;;;;;1865880;77;21091;-50
2021/07/21 01:15:18;;;;;;;16.57;14.83;;;27.70;69.00;;;;;;1864633;77;21061;-51
2021/07/21 01:18:02;;;;;;;16.48;14.78;;;27.60;69.10;;;;;;1864201;77;21542;-51
2021/07/21 01:20:48;;;;;;;17.55;15.43;;;27.60;69.30;;;;;;1865832;77;21056;-51
2021/07/21 01:23:39;;;;;;;17.92;16.17;;;27.60;69.20;;;;;;1864857;77;21119;-50
2021/07/21 01:26:11;;;;;;;17.92;15.93;;;27.60;69.20;;;;;;1865906;77;21566;-51
2021/07/21 01:28:44;;;;;;;18.93;17.13;;;27.50;69.40;;;;;;1865591;77;21032;-51
2021/07/21 01:31:16;;;;;;;18.95;17.15;;;27.50;69.30;;;;;;1865877;77;21084;-51
2021/07/21 01:33:46;;;;;;;19.35;17.27;;;27.40;69.30;;;;;;1865968;77;21041;-52
2021/07/21 01:36:19;;;;;;;20.15;16.55;;;27.20;69.60;;;;;;1866031;77;21024;-52
2021/07/21 01:38:51;;;;;;;18.48;16.67;;;27.10;70.10;;;;;;1864755;77;21092;-52
2021/07/21 01:41:29;;;;;;;17.67;15.72;;;27.10;70.50;;;;;;1866025;77;21098;-52
2021/07/21 01:44:06;;;;;;;18.48;16.55;;;27.00;70.60;;;;;;1865823;77;21055;-52
2021/07/21 01:46:38;;;;;;;20.62;16.60;;;27.10;70.80;;;;;;1865684;77;21189;-51
2021/07/21 01:49:09;;;;;;;17.02;15.23;;;27.10;70.70;;;;;;1866032;77;21106;-53
2021/07/21 01:51:43;;;;;;;19.32;15.70;;;27.10;70.70;;;;;;1865966;77;21052;-52
2021/07/21 01:54:15;;;;;;;17.17;15.35;;;27.10;70.70;;;;;;1865934;77;21013;-52
2021/07/21 01:57:02;;;;;;;17.67;15.50;;;27.10;71.20;;;;;;1865119;76;21197;-52
2021/07/21 01:59:32;;;;;;;18.30;16.50;;;27.10;70.40;;;;;;1865872;77;21021;-52
2021/07/21 02:02:05;;;;;;;34.73;16.23;;;27.10;70.30;;;;;;1864811;77;21052;-53
2021/07/21 02:04:42;;;;;;;17.45;14.60;;;27.00;70.30;;;;;;1865058;76;21138;-51
2021/07/21 02:07:13;;;;;;;18.02;15.32;;;27.00;70.60;;;;;;1866057;77;21095;-50
2021/07/21 02:09:50;;;;;;;17.17;13.53;;;27.00;70.80;;;;;;1866038;77;21106;-51
2021/07/21 02:12:18;;;;;;;15.60;14.07;;;27.00;70.80;;;;;;1864274;77;21049;-52
2021/07/21 02:14:49;;;;;;;16.48;14.87;;;27.10;70.70;;;;;;1865914;77;21080;-52
2021/07/21 02:17:22;;;;;;;16.27;14.28;;;27.10;71.20;;;;;;1842268;77;21053;-51
2021/07/21 02:19:53;;;;;;;19.15;15.43;;;27.20;70.50;;;;;;1865814;77;21060;-52
2021/07/21 02:22:24;;;;;;;14.98;13.50;;;27.20;70.20;;;;;;1875733;76;21060;-51
2021/07/21 02:24:59;;;;;;;17.48;15.65;;;27.10;70.30;;;;;;1884038;76;21143;-52
2021/07/21 02:27:36;;;;;;;21.57;15.70;;;27.10;70.30;;;;;;1887223;76;21080;-51
2021/07/21 02:30:08;;;;;;;17.30;15.68;;;27.00;70.30;;;;;;1888105;76;21020;-52
2021/07/21 02:32:39;;;;;;;17.62;15.78;;;26.90;70.50;;;;;;1887967;76;21110;-52
2021/07/21 02:35:10;;;;;;;15.88;14.40;;;26.80;71.10;;;;;;1888011;76;21036;-53
2021/07/21 02:37:39;;;;;;;17.23;14.70;;;26.70;71.20;;;;;;1887922;76;21164;-52
2021/07/21 02:40:11;;;;;;;16.12;14.43;;;26.80;71.00;;;;;;1888002;76;21048;-52
2021/07/21 02:42:41;;;;;;;17.87;15.38;;;26.70;70.80;;;;;;1887832;76;21091;-53
2021/07/21 02:45:12;;;;;;;18.73;14.80;;;26.70;70.80;;;;;;1887888;76;21032;-51
2021/07/21 02:47:43;;;;;;;15.20;13.80;;;26.80;70.90;;;;;;1888072;76;21110;-52
2021/07/21 02:50:14;;;;;;;16.25;14.53;;;26.90;70.80;;;;;;1888095;76;21016;-51
2021/07/21 02:52:49;;;;;;;18.60;14.95;;;27.00;70.40;;;;;;1888049;76;21466;-51
2021/07/21 02:55:25;;;;;;;17.50;14.63;;;27.00;70.10;;;;;;1885614;76;21080;-53
2021/07/21 02:58:02;;;;;;;14.80;13.48;;;27.00;70.30;;;;;;1879857;76;21048;-51
2021/07/21 03:00:32;;;;;;;15.70;14.10;;;27.00;70.70;;;;;;1887995;76;21032;-52
2021/07/21 03:03:06;;;;;;;17.10;14.73;;;27.10;70.70;;;;;;1886814;76;21055;-51
2021/07/21 03:05:38;;;;;;;16.50;14.87;;;27.10;70.40;;;;;;1888042;76;21482;-52
2021/07/21 03:08:09;;;;;;;19.48;15.35;;;27.20;70.20;;;;;;1886940;76;21155;-51
2021/07/21 03:10:44;;;;;;;15.08;13.48;;;27.10;70.20;;;;;;1887794;76;21019;-49
2021/07/21 03:13:20;;;;;;;14.58;13.28;;;27.10;70.40;;;;;;1886714;76;21044;-49
2021/07/21 03:15:54;;;;;;;16.70;14.78;;;27.20;70.60;;;;;;1887630;76;21099;-51
2021/07/21 03:18:28;;;;;;;14.43;12.85;;;27.30;70.30;;;;;;1885404;76;21106;-52
2021/07/21 03:20:59;;;;;;;17.40;14.68;;;27.40;70.10;;;;;;1887441;76;21529;-52
2021/07/21 03:23:31;;;;;;;16.17;13.98;;;27.50;69.90;;;;;;1869867;76;21797;-51
2021/07/21 03:26:20;;;;;;;15.95;13.60;;;27.50;69.70;;;;;;1865877;77;21073;-51
2021/07/21 03:28:51;;;;;;;19.25;13.50;;;27.60;69.80;;;;;;1865888;77;21110;-50
2021/07/21 03:31:22;;;;;;;15.78;13.72;;;27.70;69.70;;;;;;1865831;76;21436;-51
2021/07/21 03:33:55;;;;;;;15.98;13.88;;;27.80;69.40;;;;;;1865883;76;21150;-51
2021/07/21 03:36:25;;;;;;;19.70;14.40;;;27.90;69.00;;;;;;1860479;77;21143;-51
2021/07/21 03:39:03;;;;;;;15.38;13.72;;;27.90;68.50;;;;;;1849817;77;21064;-51
2021/07/21 03:41:39;;;;;;;16.48;13.68;;;27.90;68.70;;;;;;1864529;77;21126;-51
2021/07/21 03:44:13;;;;;;;15.85;13.85;;;27.90;68.80;;;;;;1866132;77;21080;-52
2021/07/21 03:46:44;;;;;;;17.42;14.13;;;28.00;68.70;;;;;;1865547;77;21122;-49
2021/07/21 03:49:17;;;;;;;17.70;13.85;;;28.00;68.60;;;;;;1866154;77;21044;-52
2021/07/21 03:52:03;;;;;;;18.10;13.48;;;28.00;68.60;;;;;;1865095;77;21068;-49
2021/07/21 03:54:35;;;;;;;14.03;12.63;;;28.00;68.60;;;;;;1856141;77;21040;-52
2021/07/21 03:57:08;;;;;;;;;;;28.00;68.80;;;;;;1849917;77;21173;-50
2021/07/21 03:59:40;;;;;;;19.55;14.68;;;28.10;68.60;;;;;;1865876;77;20144;-50
2021/07/21 04:02:10;;;;;;;18.37;13.10;;;28.20;68.40;;;;;;1865840;77;21017;-51
2021/07/21 04:04:43;;;;;;;18.25;13.90;;;28.20;68.20;;;;;;1865818;77;21032;-52
2021/07/21 04:07:19;;;;;;;16.70;14.00;;;28.20;68.20;;;;;;1865956;77;21049;-52
2021/07/21 04:09:52;;;;;;;17.30;13.28;;;28.20;68.20;;;;;;1863694;77;21060;-51
2021/07/21 04:12:23;;;;;;;18.52;13.68;;;28.20;68.20;;;;;;1865867;77;21092;-47
2021/07/21 04:14:55;;;;;;;15.65;12.55;;;28.20;68.20;;;;;;1865015;77;21123;-48
2021/07/21 04:17:32;;;;;;;25.97;15.15;;;28.30;68.20;;;;;;1863970;77;21150;-47
2021/07/21 04:20:04;;;;;;;14.07;12.60;;;28.30;68.00;;;;;;1865857;77;21017;-50
2021/07/21 04:22:35;;;;;;;14.78;12.20;;;28.40;68.00;;;;;;1865685;77;21064;-48
2021/07/21 04:25:06;;;;;;;13.95;12.47;;;28.50;68.10;;;;;;1865910;77;21065;-51
2021/07/21 04:27:37;;;;;;;20.00;13.38;;;28.60;68.00;;;;;;1865930;77;21104;-51
2021/07/21 04:30:09;;;;;;;15.50;13.38;;;28.80;67.70;;;;;;1863761;76;21040;-49
2021/07/21 04:32:42;;;;;;;16.75;12.90;;;29.00;67.50;;;;;;1865682;77;21067;-49
2021/07/21 04:35:15;;;;;;;17.27;13.75;;;29.20;67.20;;;;;;1865559;77;21160;-51
2021/07/21 04:37:46;;;;;;;17.82;13.85;;;29.40;66.90;;;;;;1865128;77;21146;-48
2021/07/21 04:40:16;;;;;;;18.98;14.07;;;29.60;66.40;;;;;;1866041;77;21099;-50
2021/07/21 04:42:48;;;;;;;17.57;12.63;;;29.60;66.20;;;;;;1865834;77;21057;-47
2021/07/21 04:45:19;;;;;;;14.25;12.73;;;29.70;66.00;;;;;;1865907;77;21103;-51
2021/07/21 04:47:49;;;;;;;14.80;13.00;;;29.80;65.80;;;;;;1865799;77;21040;-51
2021/07/21 04:50:21;;;;;;;16.77;12.00;;;29.90;65.50;;;;;;1866055;77;21056;-50
2021/07/21 04:52:51;;;;;;;14.90;12.58;;;30.00;65.30;;;;;;1865797;77;21114;-51
2021/07/21 04:55:22;;;;;;;15.83;12.85;;;30.20;64.60;;;;;;1865907;77;21107;-50
2021/07/21 04:57:52;;;;;;;21.87;12.10;;;30.30;63.90;;;;;;1865769;77;21041;-49
2021/07/21 05:00:23;;;;;;;20.10;12.78;;;30.40;63.40;;;;;;1864996;76;21478;-51
2021/07/21 05:02:54;;;;;;;16.67;11.60;;;30.40;63.10;;;;;;1864985;77;21219;-50
2021/07/21 05:05:24;;;;;;;20.08;13.25;;;30.60;62.80;;;;;;1865850;76;21040;-51
2021/07/21 05:07:58;;;;;;;15.18;11.78;;;30.70;62.20;;;;;;1865278;77;21103;-52
2021/07/21 05:10:30;;;;;;;18.48;11.40;;;30.70;61.20;;;;;;1841653;77;21530;-52
2021/07/21 05:13:00;;;;;;;15.18;12.98;;;30.80;60.10;;;;;;1866050;77;21080;-52
2021/07/21 05:15:31;;;;;;;13.70;11.90;;;30.90;59.80;;;;;;1865502;77;21064;-51
2021/07/21 05:18:05;;;;;;;13.30;11.70;;;30.90;59.50;;;;;;1864525;77;21056;-52
2021/07/21 05:20:36;;;;;;;17.25;11.55;;;31.00;59.00;;;;;;1864789;77;21107;-50
2021/07/21 05:23:07;;;;;;;14.98;10.95;;;31.00;59.00;;;;;;1869390;76;21082;-53
2021/07/21 05:25:39;;;;;;;16.25;11.78;;;31.10;58.70;;;;;;1887089;76;21092;-51
2021/07/21 05:28:10;;;;;;;13.75;12.37;;;31.20;58.30;;;;;;1882753;76;21031;-50
2021/07/21 05:30:39;;;;;;;18.50;13.50;;;31.30;58.20;;;;;;1887823;76;21032;-51
2021/07/21 05:33:11;;;;;;;14.18;12.10;;;31.40;58.00;;;;;;1887405;76;21110;-52
2021/07/21 05:35:45;;;;;;;18.60;12.00;;;31.50;57.70;;;;;;1887831;76;21470;-50
2021/07/21 05:38:16;;;;;;;14.35;11.12;;;31.60;57.70;;;;;;1887178;76;21113;-52
2021/07/21 05:40:46;;;;;;;11.03;9.83;;;31.80;57.50;;;;;;1887944;76;21131;-49
2021/07/21 05:43:23;;;;;;;13.25;9.45;;;31.90;57.20;;;;;;1885355;76;21080;-52
2021/07/21 05:46:00;;;;;;;13.93;10.05;;;32.00;56.70;;;;;;1886759;76;21144;-52
2021/07/21 05:48:30;;;;;;;11.57;10.48;;;32.00;56.50;;;;;;1886702;76;21071;-50
2021/07/21 05:51:20;;;;;;;11.65;9.68;;;32.10;56.20;;;;;;1874301;76;21106;-51
2021/07/21 05:53:50;;;;;;;11.75;10.43;;;32.20;56.20;;;;;;1887807;76;21059;-49
2021/07/21 05:56:20;;;;;;;14.83;10.80;;;32.30;55.90;;;;;;1887884;76;21083;-48
2021/07/21 05:58:51;;;;;;;13.05;10.38;;;32.40;55.70;;;;;;1886715;76;21121;-50
2021/07/21 06:01:20;;;;;;;20.88;10.78;;;32.50;55.30;;;;;;1887962;76;21047;-51
2021/07/21 06:03:51;;;;;;;13.93;9.65;;;32.60;54.70;;;;;;1887968;76;21109;-52
2021/07/21 06:06:28;;;;;;;12.88;10.23;;;32.60;54.40;;;;;;1868126;76;21063;-53
2021/07/21 06:09:15;;;;;;;15.55;10.98;;;32.60;54.30;;;;;;1887780;76;21173;-50
2021/07/21 06:12:02;;;;;;;14.25;11.08;;;32.60;54.60;;;;;;1874247;76;21137;-52
2021/07/21 06:14:33;;;;;;;12.53;10.50;;;32.70;54.30;;;;;;1888124;76;21036;-51
2021/07/21 06:17:03;;;;;;;16.80;10.82;;;32.70;54.30;;;;;;1887882;76;21106;-52
2021/07/21 06:19:34;;;;;;;13.40;11.43;;;32.80;54.20;;;;;;1884851;76;21043;-51
2021/07/21 06:22:06;;;;;;;12.78;10.78;;;32.90;53.70;;;;;;1887762;76;21036;-51
2021/07/21 06:24:53;;;;;;;16.10;12.28;;;32.90;53.40;;;;;;1872406;76;21072;-50
2021/07/21 06:27:27;;;;;;;20.32;11.33;;;33.10;53.30;;;;;;1864916;77;21524;-49
2021/07/21 06:29:58;;;;;;;12.40;10.72;;;33.20;53.10;;;;;;1865336;77;21048;-50
2021/07/21 06:32:27;;;;;;;10.90;9.75;;;33.30;53.20;;;;;;1865933;77;21107;-49
2021/07/21 06:34:58;;;;;;;15.95;11.38;;;33.40;53.30;;;;;;1865664;76;21041;-51
2021/07/21 06:37:28;;;;;;;16.67;11.28;;;33.50;53.50;;;;;;1866032;77;21049;-51
2021/07/21 06:39:58;;;;;;;12.95;9.68;;;33.60;52.90;;;;;;1841801;77;21037;-51
2021/07/21 06:42:27;;;;;;;12.30;9.50;;;33.60;51.90;;;;;;1865932;77;21495;-50
2021/07/21 06:44:57;;;;;;;10.55;9.53;;;33.60;51.20;;;;;;1865934;77;21030;-52
2021/07/21 06:47:29;;;;;;;14.55;10.03;;;33.50;50.70;;;;;;1864688;77;21043;-52
2021/07/21 06:50:00;;;;;;;12.15;10.05;;;33.40;51.00;;;;;;1864791;77;21068;-52
2021/07/21 06:52:30;;;;;;;12.73;10.23;;;33.40;51.60;;;;;;1865941;77;21095;-55
2021/07/21 06:55:00;;;;;;;17.57;9.88;;;33.40;52.10;;;;;;1865853;77;21064;-55
2021/07/21 06:57:31;;;;;;;11.50;10.40;;;33.30;52.60;;;;;;1865748;77;21048;-55
2021/07/21 07:00:07;;;;;;;14.58;11.33;;;33.30;52.80;;;;;;1847279;77;21044;-55
2021/07/21 07:02:44;;;;;;;16.57;11.08;;;33.20;53.30;;;;;;1849549;77;21044;-56
2021/07/21 07:05:27;;;;;;;17.25;10.95;;;33.20;54.00;;;;;;1844628;77;21048;-57
2021/07/21 07:08:15;;;;;;;12.82;10.23;;;33.30;54.60;;;;;;1865754;77;21044;-57
2021/07/21 07:10:49;;;;;;;13.88;12.00;;;33.50;54.90;;;;;;1847239;77;21110;-57
2021/07/21 07:13:19;;;;;;;13.25;11.95;;;33.60;55.30;;;;;;1865755;77;21487;-57
2021/07/21 07:15:50;;;;;;;12.88;11.18;;;33.70;55.50;;;;;;1865843;77;21064;-57
2021/07/21 07:18:19;;;;;;;16.12;11.85;;;33.80;55.70;;;;;;1865577;77;21032;-57
2021/07/21 07:20:50;;;;;;;16.55;13.68;;;33.90;55.90;;;;;;1864534;77;21107;-56
2021/07/21 07:23:32;;;;;;;15.80;13.60;;;33.90;56.30;;;;;;1864567;77;21025;-56
2021/07/21 07:26:21;;;;;;;18.65;14.25;;;33.80;56.70;;;;;;1864617;77;21087;-57
2021/07/21 07:29:03;;;;;;;17.05;15.38;;;33.80;57.30;;;;;;1865117;77;21169;-56
2021/07/21 07:31:45;;;;;;;20.25;16.32;;;33.70;57.80;;;;;;1864177;77;21620;-50
2021/07/21 07:34:16;;;;;;;20.90;14.47;;;33.70;58.30;;;;;;1863839;77;21490;-55
2021/07/21 07:36:46;;;;;;;16.00;14.60;;;33.50;58.50;;;;;;1865192;77;21086;-56
2021/07/21 07:39:16;;;;;;;20.50;15.18;;;33.50;59.10;;;;;;1865068;77;21057;-56
2021/07/21 07:41:45;;;;;;;23.20;16.02;;;33.50;59.60;;;;;;1865029;77;21444;-56
2021/07/21 07:44:14;;;;;;;19.70;14.75;;;33.60;60.00;;;;;;1865174;76;21041;-54
2021/07/21 07:46:44;;;;;;;21.15;16.25;;;33.70;60.00;;;;;;1864833;77;21103;-57
2021/07/21 07:49:13;;;;;;;21.35;16.27;;;33.80;59.90;;;;;;1865113;77;21106;-56
2021/07/21 07:51:43;;;;;;;21.52;15.55;;;33.80;59.80;;;;;;1864958;77;21021;-56
2021/07/21 07:54:13;;;;;;;21.93;17.05;;;33.90;59.60;;;;;;1864859;77;21106;-56
2021/07/21 07:56:43;;;;;;;17.48;15.25;;;33.90;59.30;;;;;;1865120;77;21045;-57
2021/07/21 07:59:12;;;;;;;20.15;16.05;;;33.90;59.30;;;;;;1864962;77;21081;-58
2021/07/21 08:01:42;;;;;;;16.57;14.60;;;34.00;59.20;;;;;;1901248;75;21078;-57
2021/07/21 08:04:11;;;;;;;24.85;15.78;;;34.00;58.90;;;;;;1901495;75;21093;-50
2021/07/21 08:06:41;;;;;;;17.23;15.45;;;34.10;58.70;;;;;;1901403;75;21025;-54
2021/07/21 08:09:13;;;;;;;19.52;14.98;;;34.00;58.80;;;;;;1901360;75;21103;-55
2021/07/21 08:11:52;;;;;;;19.50;15.15;;;34.00;59.00;;;;;;1901107;75;21078;-57
2021/07/21 08:14:18;;;;;;;15.35;13.95;;;33.90;58.90;;;;;;1900071;75;21070;-59
2021/07/21 08:16:52;;;;;;;16.75;15.03;;;34.00;58.80;;;;;;1901292;75;21090;-58
2021/07/21 08:19:26;;;;;;;15.07;13.67;;;34.00;58.60;;;;;;1901881;75;21113;-57
2021/07/21 08:21:57;;;;;;;19.77;15.38;;;34.00;58.60;;;;;;1900906;75;21429;-52
2021/07/21 08:24:27;;;;;;;16.52;14.58;;;34.00;58.50;;;;;;1901050;75;21043;-52
2021/07/21 08:26:56;;;;;;;15.25;13.65;;;34.00;58.60;;;;;;1901335;75;21097;-57
2021/07/21 08:29:25;;;;;;;17.90;15.58;;;33.90;58.50;;;;;;1901406;75;21007;-56
2021/07/21 08:31:55;;;;;;;17.92;15.53;;;33.90;58.80;;;;;;1901262;75;21089;-52
2021/07/21 08:34:24;;;;;;;17.87;15.35;;;33.90;59.00;;;;;;1900484;75;21179;-55
2021/07/21 08:36:53;;;;;;;15.78;14.25;;;34.00;59.10;;;;;;1901292;75;21590;-55
2021/07/21 08:39:23;;;;;;;22.02;15.32;;;34.00;59.10;;;;;;1901223;75;21082;-55
2021/07/21 08:41:53;;;;;;;18.17;14.13;;;34.00;58.90;;;;;;1901352;75;21058;-56
2021/07/21 08:44:24;;;;;;;17.75;15.72;;;34.00;58.90;;;;;;1900986;75;21022;-52
2021/07/21 08:46:53;;;;;;;16.30;14.73;;;34.00;59.00;;;;;;1901001;75;21030;-54
2021/07/21 08:49:23;;;;;;;20.25;15.48;;;33.90;58.90;;;;;;1903205;75;21098;-56
2021/07/21 08:51:54;;;;;;;17.52;15.72;;;33.90;59.20;;;;;;1901282;75;21098;-55
2021/07/21 08:54:24;;;;;;;18.27;15.43;;;33.80;59.30;;;;;;1900781;75;21100;-56
2021/07/21 08:56:59;;;;;;;21.68;16.52;;;33.70;59.20;;;;;;1901332;75;21328;-56
2021/07/21 08:59:40;;;;;;;18.12;14.95;;;33.70;59.50;;;;;;1900982;75;21033;-54
2021/07/21 09:02:14;;;;;;;18.32;15.50;;;33.70;59.80;;;;;;1899647;75;21113;-56
2021/07/21 09:04:52;;;;;;;17.80;15.53;;;33.60;59.70;;;;;;1900665;75;21030;-57
2021/07/21 09:07:34;;;;;;;21.65;17.07;;;33.70;60.50;;;;;;1901275;75;21096;-56
2021/07/21 09:10:14;;;;;;;18.23;15.90;;;33.70;59.80;;;;;;1899634;75;21062;-50
2021/07/21 09:12:55;;;;;;;15.55;14.05;;;33.70;59.90;;;;;;1900387;75;21511;-54
2021/07/21 09:15:25;;;;;;;24.15;15.35;;;33.70;60.00;;;;;;1899837;75;21576;-53
2021/07/21 09:18:05;;;;;;;15.50;13.90;;;33.80;59.90;;;;;;1901273;75;21031;-53
2021/07/21 09:20:45;;;;;;;19.48;13.88;;;33.90;59.80;;;;;;1901263;75;21094;-51
2021/07/21 09:23:15;;;;;;;19.77;15.55;;;33.90;59.70;;;;;;1900770;75;21152;-55
2021/07/21 09:25:45;;;;;;;15.60;14.07;;;34.00;59.70;;;;;;1901249;75;21102;-55
2021/07/21 09:28:14;;;;;;;16.00;14.28;;;34.00;59.20;;;;;;1901165;75;21157;-54
2021/07/21 09:30:46;;;;;;;17.07;15.48;;;34.00;59.30;;;;;;1901522;74;21132;-54
2021/07/21 09:33:17;;;;;;;16.62;13.65;;;34.10;59.40;;;;;;1901148;75;21000;-54
2021/07/21 09:35:49;;;;;;;16.30;14.65;;;34.20;59.50;;;;;;1901057;75;21028;-56
2021/07/21 09:38:21;;;;;;;14.13;12.73;;;34.20;59.30;;;;;;1901180;75;21032;-56
2021/07/21 09:40:53;;;;;;;17.40;14.65;;;34.20;59.20;;;;;;1901240;75;21021;-57
2021/07/21 09:43:27;;;;;;;16.07;14.10;;;34.20;59.30;;;;;;1901183;75;21053;-51
2021/07/21 09:46:11;;;;;;;17.40;14.35;;;34.30;59.40;;;;;;1899792;75;21537;-50
2021/07/21 09:48:46;;;;;;;15.85;12.70;;;34.30;59.40;;;;;;1901172;75;21049;-56
2021/07/21 09:51:35;;;;;;;14.63;13.22;;;34.40;59.20;;;;;;1900771;75;21158;-51
2021/07/21 09:54:19;;;;;;;18.40;13.55;;;34.40;59.30;;;;;;1900072;75;21028;-55
2021/07/21 09:56:52;;;;;;;19.30;13.07;;;34.40;59.30;;;;;;1902269;75;21086;-53
2021/07/21 09:59:29;;;;;;;15.45;13.30;;;34.40;59.50;;;;;;1902331;75;21060;-54
2021/07/21 10:02:00;;;;;;;20.70;12.23;;;34.40;59.20;;;;;;1901931;75;21102;-55
2021/07/21 10:04:36;;;;;;;16.15;11.35;;;34.30;59.30;;;;;;1899566;75;21114;-55
2021/07/21 10:07:52;;;;;;;17.92;11.35;;;34.30;59.10;;;;;;1902036;75;21118;-54
2021/07/21 10:09:37;;;;;;;14.68;10.63;;;34.30;59.00;;;;;;1892988;75;21040;-55
2021/07/21 10:12:17;;;;;;;21.80;18.45;;;34.20;58.90;;;;;;1902156;75;21032;-55
2021/07/21 10:14:54;;;;;;;21.40;14.65;;;34.20;59.10;;;;;;1902225;75;21031;-54
2021/07/21 10:17:24;;;;;;;13.60;12.05;;;34.20;59.30;;;;;;1902025;75;21518;-55
2021/07/21 10:19:53;;;;;;;16.93;11.25;;;34.30;59.00;;;;;;1902164;75;21026;-55
2021/07/21 10:22:23;;;;;;;14.58;12.13;;;34.30;58.40;;;;;;1902244;75;21076;-54
2021/07/21 10:24:53;;;;;;;26.45;20.55;;;34.30;58.40;;;;;;1902277;75;21021;-55
2021/07/21 10:27:23;;;;;;;11.85;10.80;;;34.30;58.10;;;;;;1918224;74;21067;-55
2021/07/21 10:29:54;;;;;;;11.35;10.15;;;34.30;58.20;;;;;;1924938;74;21031;-55
2021/07/21 10:32:24;;;;;;;12.35;10.40;;;34.30;58.10;;;;;;1924608;74;21003;-55
2021/07/21 10:34:54;;;;;;;12.47;11.28;;;34.20;58.00;;;;;;1924664;74;21028;-55
2021/07/21 10:37:24;;;;;;;20.55;11.48;;;34.10;57.80;;;;;;1924623;74;21035;-55
2021/07/21 10:39:58;;;;;;;14.18;10.82;;;34.10;58.00;;;;;;1924659;74;21027;-57
2021/07/21 10:42:24;;;;;;;13.48;11.38;;;34.00;58.10;;;;;;1923974;74;21036;-57
2021/07/21 10:45:05;;;;;;;12.15;10.68;;;33.90;58.10;;;;;;1924690;74;21027;-57
2021/07/21 10:47:36;;;;;;;18.35;12.25;;;33.90;58.00;;;;;;1897673;74;21028;-57
2021/07/21 10:50:10;;;;;;;16.57;11.85;;;33.80;57.90;;;;;;1923462;74;21431;-56
2021/07/21 10:55:24;;;;;;;15.72;10.53;;;33.70;58.10;;;;;;1924608;74;21486;-56
2021/07/21 11:00:46;;;;;;;13.75;11.15;;;33.60;58.00;;;;;;1853097;77;21143;-56
2021/07/21 11:03:31;;;;;;;15.35;11.50;;;33.50;58.00;;;;;;1852972;77;21051;-56
2021/07/21 11:06:10;;;;;;;17.82;11.53;;;33.40;58.00;;;;;;1887484;74;21027;-56
2021/07/21 11:08:51;;;;;;;15.10;12.25;;;33.30;58.40;;;;;;1924600;74;21032;-56
2021/07/21 11:11:22;;;;;;;14.70;12.65;;;33.20;58.80;;;;;;1924671;74;21000;-56
2021/07/21 11:13:59;;;;;;;17.20;11.78;;;33.10;59.20;;;;;;1924562;74;21074;-56
2021/07/21 11:16:50;;;;;;;22.25;11.85;;;33.10;59.60;;;;;;1924655;74;21031;-56
2021/07/21 11:19:34;;;;;;;18.10;12.03;;;33.10;59.80;;;;;;1924673;74;21059;-56
2021/07/21 11:22:09;;;;;;;16.15;12.45;;;33.20;60.20;;;;;;1924776;74;21059;-56
2021/07/21 11:25:10;;;;;;;14.33;12.82;;;33.20;60.50;;;;;;1924788;74;21097;-56
2021/07/21 11:27:49;;;;;;;17.92;11.83;;;33.30;60.50;;;;;;1910838;74;21131;-56
2021/07/21 11:30:36;;;;;;;23.27;13.05;;;33.40;60.40;;;;;;1902259;75;21432;-56
2021/07/21 11:33:42;;;;;;;22.05;12.53;;;33.50;60.40;;;;;;1902152;75;21020;-56
2021/07/21 11:36:49;;;;;;;14.53;13.00;;;33.50;59.80;;;;;;1902178;75;21169;-56
2021/07/21 11:39:36;;;;;;;15.95;12.82;;;33.50;59.90;;;;;;1902248;75;21033;-56
2021/07/21 11:42:06;;;;;;;23.87;13.08;;;33.40;60.00;;;;;;1902199;75;21448;-56
2021/07/21 11:44:38;;;;;;;22.15;14.00;;;33.40;60.30;;;;;;1902205;75;21028;-56
2021/07/21 11:47:18;;;;;;;23.05;14.93;;;33.40;60.30;;;;;;1901457;75;21052;-56
2021/07/21 11:49:52;;;;;;;14.73;12.30;;;33.40;60.50;;;;;;1901573;75;21056;-56
2021/07/21 11:52:23;;;;;;;14.47;13.00;;;33.40;60.60;;;;;;1902036;75;21001;-56
2021/07/21 11:54:54;;;;;;;23.92;13.22;;;33.40;60.80;;;;;;1902124;75;21121;-56
2021/07/21 11:57:27;;;;;;;17.98;14.75;;;33.40;60.70;;;;;;1902183;75;21086;-56
2021/07/21 11:59:58;;;;;;;14.87;13.40;;;33.40;60.90;;;;;;1902393;75;21036;-56
2021/07/21 12:02:29;;;;;;;20.92;13.95;;;33.40;60.90;;;;;;1902164;75;21094;-56
2021/07/21 12:05:01;;;;;;;14.10;12.53;;;33.50;61.00;;;;;;1902131;75;21028;-56
2021/07/21 12:07:38;;;;;;;17.60;12.18;;;33.50;60.60;;;;;;1902157;75;21061;-56
2021/07/21 12:10:10;;;;;;;15.78;13.13;;;33.50;60.10;;;;;;1902139;75;21090;-56
2021/07/21 12:12:40;;;;;;;22.50;13.25;;;33.50;60.30;;;;;;1902019;75;21033;-56
2021/07/21 12:15:11;;;;;;;17.17;12.23;;;33.50;60.20;;;;;;1902083;75;21103;-56
2021/07/21 12:17:40;;;;;;;18.17;12.95;;;33.50;60.00;;;;;;1902134;75;21045;-56
2021/07/21 12:20:17;;;;;;;13.80;12.20;;;33.60;59.90;;;;;;1902226;75;21451;-56
2021/07/21 12:22:45;;;;;;;15.03;12.78;;;33.70;59.60;;;;;;1901183;75;21009;-56
2021/07/21 12:25:16;;;;;;;14.73;12.05;;;33.70;59.20;;;;;;1902122;75;21080;-56
2021/07/21 12:27:48;;;;;;;14.15;12.03;;;33.70;59.10;;;;;;1902038;75;21118;-56
2021/07/21 12:30:20;;;;;;;15.80;12.58;;;33.70;58.90;;;;;;1902149;75;21044;-56
2021/07/21 12:32:51;;;;;;;17.20;11.88;;;33.70;59.00;;;;;;1902255;75;21068;-56
2021/07/21 12:35:26;;;;;;;12.55;11.03;;;33.90;59.40;;;;;;1902156;75;21029;-56
2021/07/21 12:37:56;;;;;;;12.98;10.95;;;34.00;58.40;;;;;;1901730;75;21094;-56
2021/07/21 12:40:28;;;;;;;14.25;11.05;;;33.90;58.20;;;;;;1902167;75;21028;-56
2021/07/21 12:42:59;;;;;;;13.30;11.45;;;34.00;57.80;;;;;;1902162;75;21100;-56
2021/07/21 12:45:34;;;;;;;11.88;10.15;;;34.00;57.70;;;;;;1902123;75;21032;-56
2021/07/21 12:48:04;;;;;;;13.83;11.20;;;34.10;57.40;;;;;;1902334;75;21110;-57
2021/07/21 12:50:39;;;;;;;13.35;9.73;;;34.10;56.80;;;;;;1902172;75;21106;-57
2021/07/21 12:53:19;;;;;;;14.63;9.80;;;34.10;55.90;;;;;;1902081;75;21100;-56
2021/07/21 12:55:50;;;;;;;12.45;10.78;;;34.10;55.70;;;;;;1902103;75;21123;-57
2021/07/21 12:58:20;;;;;;;13.30;10.95;;;34.10;55.70;;;;;;1902089;75;21083;-57
2021/07/21 13:00:57;;;;;;;14.15;10.58;;;34.10;55.90;;;;;;1902251;75;21094;-57
2021/07/21 13:03:28;;;;;;;18.65;10.72;;;34.20;56.00;;;;;;1902076;75;21056;-57
2021/07/21 13:06:01;;;;;;;12.30;11.00;;;34.20;56.20;;;;;;1902068;75;21004;-57
2021/07/21 13:08:35;;;;;;;11.33;10.00;;;34.30;55.90;;;;;;1902508;75;21094;-56
2021/07/21 13:11:11;;;;;;;12.35;10.03;;;34.30;55.50;;;;;;1902162;75;21008;-56